createdAt,value
2022-11-29T00:00:58.542Z,102122.72
2022-11-29T00:03:26.203Z,102120.47
2022-11-29T00:05:53.768Z,102119.25
2022-11-29T00:08:21.162Z,102121.63
2022-11-29T00:10:48.425Z,102114.59
2022-11-29T00:13:15.967Z,102114.44
2022-11-29T00:15:43.232Z,102119.09
2022-11-29T00:18:10.631Z,102125.13
2022-11-29T00:20:38.823Z,102113.16
2022-11-29T00:23:06.277Z,102107.28
2022-11-29T00:25:33.751Z,102103.13
2022-11-29T00:28:01.099Z,102117.75
2022-11-29T00:30:28.622Z,102122.53
2022-11-29T00:32:56.147Z,102113.13
2022-11-29T00:35:23.579Z,102110.69
2022-11-29T00:37:50.988Z,102113.47
2022-11-29T00:40:18.755Z,102108.78
2022-11-29T00:42:46.122Z,102103.97
2022-11-29T00:45:13.521Z,102097.84
2022-11-29T00:47:40.965Z,102107.28
2022-11-29T00:50:08.444Z,102113.88
2022-11-29T00:52:35.836Z,102106.34
2022-11-29T00:55:03.621Z,102106.78
2022-11-29T00:57:31.014Z,102108.38
2022-11-29T00:59:58.414Z,102114.28
2022-11-29T01:02:25.981Z,102117.69
2022-11-29T01:04:53.375Z,102122.63
2022-11-29T01:07:20.745Z,102112.56
2022-11-29T01:09:48.180Z,102127.91
2022-11-29T01:12:15.601Z,102113.63
2022-11-29T01:14:43.485Z,102111.81
2022-11-29T01:17:11.017Z,102110.41
2022-11-29T01:19:38.907Z,102108.44
2022-11-29T01:22:06.156Z,102097.19
2022-11-29T01:24:33.478Z,102090.16
2022-11-29T01:27:01.074Z,102093.50
2022-11-29T01:29:28.553Z,102089.66
2022-11-29T01:31:55.914Z,102091.16
2022-11-29T01:34:23.531Z,102097.03
2022-11-29T01:36:50.939Z,102103.81
2022-11-29T01:39:18.316Z,102105.34
2022-11-29T01:41:45.842Z,102115.31
2022-11-29T01:44:13.202Z,102104.88
2022-11-29T01:46:41.432Z,102107.75
2022-11-29T01:49:09.273Z,102099.63
2022-11-29T01:51:37.329Z,102117.28
2022-11-29T01:54:04.961Z,102114.41
2022-11-29T01:56:32.896Z,102100.81
2022-11-29T01:59:01.424Z,102106.66
2022-11-29T02:01:28.925Z,102092.44
2022-11-29T02:03:56.288Z,102105.09
2022-11-29T02:06:23.619Z,102100.09
2022-11-29T02:08:51.209Z,102106.09
2022-11-29T02:11:23.170Z,102114.13
2022-11-29T02:13:50.576Z,102119.72
2022-11-29T02:16:21.082Z,102119.41
2022-11-29T02:19:07.963Z,102124.13
2022-11-29T02:21:54.354Z,102125.38
2022-11-29T02:24:40.588Z,102116.56
2022-11-29T02:27:17.264Z,102115.50
2022-11-29T02:29:57.654Z,102103.31
2022-11-29T02:32:25.002Z,102101.44
2022-11-29T02:34:53.713Z,102101.59
2022-11-29T02:37:20.956Z,102101.59
2022-11-29T02:40:01.098Z,102104.31
2022-11-29T02:42:56.590Z,102100.59
2022-11-29T02:45:43.283Z,102096.91
2022-11-29T02:48:28.362Z,102101.19
2022-11-29T02:50:58.586Z,102097.16
2022-11-29T02:53:44.456Z,102086.94
2022-11-29T02:56:18.115Z,102088.66
2022-11-29T02:58:47.290Z,102098.41
2022-11-29T03:01:37.951Z,102099.72
2022-11-29T03:04:05.258Z,102093.91
2022-11-29T03:06:36.970Z,102091.25
2022-11-29T03:09:23.209Z,102087.94
2022-11-29T03:11:56.909Z,102095.94
2022-11-29T03:14:24.997Z,102092.88
2022-11-29T03:16:58.541Z,102092.16
2022-11-29T03:19:44.536Z,102107.13
2022-11-29T03:22:12.027Z,102098.97
2022-11-29T03:24:45.481Z,102100.22
2022-11-29T03:27:13.901Z,102092.75
2022-11-29T03:29:41.234Z,102106.72
2022-11-29T03:32:31.887Z,102098.16
2022-11-29T03:34:59.344Z,102090.66
2022-11-29T03:37:35.856Z,102107.88
2022-11-29T03:40:03.478Z,102106.66
2022-11-29T03:42:35.629Z,102100.34
2022-11-29T03:45:08.243Z,102104.06
2022-11-29T03:47:36.963Z,102109.00
2022-11-29T03:50:04.345Z,102113.59
2022-11-29T03:52:32.162Z,102119.19
2022-11-29T03:55:08.841Z,102124.13
2022-11-29T03:57:45.288Z,102130.44
2022-11-29T04:00:13.307Z,102125.84
2022-11-29T04:02:46.798Z,102119.84
2022-11-29T04:05:29.870Z,102132.19
2022-11-29T04:08:15.769Z,102130.00
2022-11-29T04:10:55.403Z,102124.72
2022-11-29T04:13:29.283Z,102125.56
2022-11-29T04:16:15.534Z,102139.56
2022-11-29T04:18:42.925Z,102140.78
2022-11-29T04:21:10.174Z,102136.31
2022-11-29T04:23:49.538Z,102151.59
2022-11-29T04:26:35.385Z,102147.97
2022-11-29T04:29:11.619Z,102153.28
2022-11-29T04:31:39.130Z,102135.00
2022-11-29T04:34:09.268Z,102147.50
2022-11-29T04:36:57.489Z,102145.69
2022-11-29T04:39:24.817Z,102159.06
2022-11-29T04:41:57.824Z,102160.09
2022-11-29T04:44:25.178Z,102160.66
2022-11-29T04:47:01.669Z,102163.63
2022-11-29T04:49:29.173Z,102166.34
2022-11-29T04:52:06.391Z,102174.31
2022-11-29T04:54:39.655Z,102179.34
2022-11-29T04:57:13.342Z,102178.22
2022-11-29T04:59:59.508Z,102174.41
2022-11-29T05:02:36.189Z,102175.88
2022-11-29T05:05:07.956Z,102176.06
2022-11-29T05:07:48.469Z,102183.34
2022-11-29T05:10:15.953Z,102198.88
2022-11-29T05:12:47.661Z,102197.78
2022-11-29T05:15:30.476Z,102204.09
2022-11-29T05:18:09.514Z,102189.56
2022-11-29T05:21:15.746Z,102193.03
2022-11-29T05:24:02.658Z,102190.03
2022-11-29T05:26:34.182Z,102203.97
2022-11-29T05:29:01.573Z,102198.91
2022-11-29T05:31:30.743Z,102197.03
2022-11-29T05:34:16.965Z,102201.69
2022-11-29T05:36:53.704Z,102193.34
2022-11-29T05:39:33.411Z,102204.41
2022-11-29T05:42:16.287Z,102206.09
2022-11-29T05:44:48.826Z,102214.59
2022-11-29T05:47:18.417Z,102203.94
2022-11-29T05:49:57.991Z,102208.25
2022-11-29T05:52:42.402Z,102215.72
2022-11-29T05:55:22.137Z,102207.13
2022-11-29T05:57:58.922Z,102216.47
2022-11-29T06:00:33.604Z,102218.75
2022-11-29T06:03:04.118Z,102220.19
2022-11-29T06:05:34.543Z,102210.31
2022-11-29T06:08:20.707Z,102213.56
2022-11-29T06:10:56.723Z,102207.09
2022-11-29T06:13:27.212Z,102218.03
2022-11-29T06:15:57.809Z,102211.16
2022-11-29T06:18:25.227Z,102209.84
2022-11-29T06:21:02.022Z,102214.59
2022-11-29T06:23:51.126Z,102208.16
2022-11-29T06:26:29.297Z,102223.22
2022-11-29T06:29:15.767Z,102210.44
2022-11-29T06:31:44.648Z,102200.97
2022-11-29T06:34:30.715Z,102207.72
2022-11-29T06:37:34.342Z,102207.81
2022-11-29T06:40:02.309Z,102204.25
2022-11-29T06:42:30.308Z,102212.16
2022-11-29T06:44:57.952Z,102219.91
2022-11-29T06:47:28.214Z,102220.47
2022-11-29T06:50:01.436Z,102223.22
2022-11-29T06:52:59.068Z,102223.22
2022-11-29T06:55:52.766Z,102218.91
2022-11-29T06:58:28.349Z,102219.34
2022-11-29T07:01:05.238Z,102221.50
2022-11-29T07:03:33.317Z,102204.09
2022-11-29T07:06:01.806Z,102206.28
2022-11-29T13:58:29.136Z,102073.84
2022-11-29T14:01:06.738Z,102087.53
2022-11-29T14:03:38.823Z,102072.06
2022-11-29T14:06:22.000Z,102080.75
2022-11-29T14:09:17.805Z,102072.78
2022-11-29T14:11:44.877Z,102081.50
2022-11-29T14:14:31.703Z,102080.06
2022-11-29T14:17:01.333Z,102098.25
2022-11-29T14:19:33.335Z,102095.59
2022-11-29T14:22:07.099Z,102094.19
2022-11-29T14:24:38.114Z,102090.50
2022-11-29T14:27:14.729Z,102091.00
2022-11-29T14:29:48.848Z,102094.75
2022-11-29T14:32:22.820Z,102087.53
2022-11-29T14:34:52.644Z,102087.41
2022-11-29T14:37:22.667Z,102089.03
2022-11-29T14:39:50.318Z,102098.25
2022-11-29T14:42:18.932Z,102084.88
2022-11-29T14:44:47.612Z,102087.88
2022-11-29T14:47:15.047Z,102085.66
2022-11-29T14:49:43.340Z,102081.22
2022-11-29T14:52:13.708Z,102079.25
2022-11-29T14:54:55.407Z,102085.28
2022-11-29T14:57:42.198Z,102084.28
2022-11-29T15:00:11.165Z,102076.59
2022-11-29T15:02:46.032Z,102071.47
2022-11-29T15:05:16.870Z,102076.31
2022-11-29T15:07:55.284Z,102087.63
2022-11-29T15:10:24.625Z,102084.50
2022-11-29T15:12:52.119Z,102083.72
2022-11-29T15:15:38.859Z,102077.06
2022-11-29T15:18:25.056Z,102077.78
2022-11-29T15:20:55.052Z,102077.00
2022-11-29T15:23:22.404Z,102077.31
2022-11-29T15:25:51.444Z,102085.13
2022-11-29T15:28:20.398Z,102075.06
2022-11-29T15:30:47.967Z,102077.78
2022-11-29T15:33:19.456Z,102068.34
2022-11-29T15:35:54.440Z,102081.81
2022-11-29T15:38:22.379Z,102082.03
2022-11-29T15:40:53.381Z,102079.25
2022-11-29T15:43:24.093Z,102080.91
2022-11-29T15:45:52.214Z,102076.13
2022-11-29T15:48:20.760Z,102079.50
2022-11-29T15:50:57.286Z,102089.41
2022-11-29T15:53:29.770Z,102100.38
2022-11-29T15:55:57.307Z,102091.16
2022-11-29T15:58:26.050Z,102077.84
2022-11-29T16:00:53.580Z,102090.63
2022-11-29T16:03:30.070Z,102084.72
2022-11-29T16:06:00.506Z,102088.44
2022-11-29T16:08:29.186Z,102089.28
2022-11-29T22:39:06.283Z,102151.81
2022-11-29T22:41:34.142Z,102151.41
2022-11-29T22:44:01.638Z,102161.72
2022-11-29T22:46:30.025Z,102173.25
2022-11-29T22:48:58.483Z,102158.91
2022-11-29T22:51:30.762Z,102156.03
2022-11-29T22:53:58.918Z,102159.38
2022-11-29T22:56:27.248Z,102155.00
2022-11-29T22:58:54.749Z,102156.59
2022-11-29T23:01:23.199Z,102153.09
2022-11-29T23:03:54.719Z,102163.88
2022-11-29T23:06:25.261Z,102165.06
2022-11-29T23:08:53.481Z,102154.28
2022-11-29T23:11:21.649Z,102150.88
2022-11-29T23:13:49.029Z,102144.19
2022-11-29T23:16:21.245Z,102143.56
2022-11-29T23:18:48.996Z,102143.31
2022-11-29T23:21:17.882Z,102136.00
2022-11-29T23:23:45.409Z,102131.44
2022-11-29T23:26:22.467Z,102135.63
2022-11-29T23:28:50.709Z,102138.81
2022-11-29T23:31:18.447Z,102141.41
2022-11-29T23:33:46.372Z,102144.13
2022-11-29T23:36:13.822Z,102143.44
2022-11-29T23:38:41.269Z,102141.00
2022-11-29T23:41:09.525Z,102132.25
2022-11-29T23:43:37.249Z,102146.97
2022-11-29T23:46:08.140Z,102147.50
2022-11-29T23:48:36.510Z,102140.91
2022-11-29T23:51:07.683Z,102132.56
2022-11-29T23:53:35.113Z,102127.75
2022-11-29T23:56:03.184Z,102130.72
2022-11-29T23:58:30.947Z,102142.25
